sensor_id;sensor_type;location;lat;lon;timestamp;P1;durP1;ratioP1;P2;durP2;ratioP2
13269;SDS011;6703;51.994;7.570;2023-05-21T00:02:21;8.35;;;3.70;;
13269;SDS011;6703;51.994;7.570;2023-05-21T00:04:48;7.90;;;3.97;;
13269;SDS011;6703;51.994;7.570;2023-05-21T00:07:18;7.20;;;4.03;;
13269;SDS011;6703;51.994;7.570;2023-05-21T00:09:46;6.95;;;3.38;;
13269;SDS011;6703;51.994;7.570;2023-05-21T00:12:13;6.80;;;3.67;;
13269;SDS011;6703;51.994;7.570;2023-05-21T00:14:41;9.05;;;3.45;;
13269;SDS011;6703;51.994;7.570;2023-05-21T00:17:09;7.35;;;3.53;;
13269;SDS011;6703;51.994;7.570;2023-05-21T00:19:37;7.70;;;3.50;;
13269;SDS011;6703;51.994;7.570;2023-05-21T00:22:05;5.57;;;3.30;;
13269;SDS011;6703;51.994;7.570;2023-05-21T00:24:34;6.25;;;3.40;;
13269;SDS011;6703;51.994;7.570;2023-05-21T00:27:01;5.07;;;2.90;;
13269;SDS011;6703;51.994;7.570;2023-05-21T00:29:29;9.05;;;3.42;;
13269;SDS011;6703;51.994;7.570;2023-05-21T00:31:57;7.32;;;3.65;;
13269;SDS011;6703;51.994;7.570;2023-05-21T00:34:25;7.90;;;4.00;;
13269;SDS011;6703;51.994;7.570;2023-05-21T00:36:52;7.35;;;3.75;;
13269;SDS011;6703;51.994;7.570;2023-05-21T00:39:21;8.07;;;3.97;;
13269;SDS011;6703;51.994;7.570;2023-05-21T00:41:50;8.07;;;4.05;;
13269;SDS011;6703;51.994;7.570;2023-05-21T00:44:17;10.13;;;3.75;;
13269;SDS011;6703;51.994;7.570;2023-05-21T00:46:45;6.50;;;3.93;;
13269;SDS011;6703;51.994;7.570;2023-05-21T00:49:18;7.47;;;3.85;;
13269;SDS011;6703;51.994;7.570;2023-05-21T00:51:47;7.75;;;3.80;;
13269;SDS011;6703;51.994;7.570;2023-05-21T00:54:15;9.02;;;3.97;;
13269;SDS011;6703;51.994;7.570;2023-05-21T00:56:43;8.02;;;3.95;;
13269;SDS011;6703;51.994;7.570;2023-05-21T00:59:12;6.75;;;3.80;;
13269;SDS011;6703;51.994;7.570;2023-05-21T01:01:40;9.43;;;4.03;;
13269;SDS011;6703;51.994;7.570;2023-05-21T01:04:08;5.88;;;3.75;;
13269;SDS011;6703;51.994;7.570;2023-05-21T01:06:36;8.80;;;4.40;;
13269;SDS011;6703;51.994;7.570;2023-05-21T01:09:04;6.43;;;3.67;;
13269;SDS011;6703;51.994;7.570;2023-05-21T01:11:36;10.30;;;4.15;;
13269;SDS011;6703;51.994;7.570;2023-05-21T01:14:05;7.13;;;3.80;;
13269;SDS011;6703;51.994;7.570;2023-05-21T01:16:36;8.10;;;4.03;;
13269;SDS011;6703;51.994;7.570;2023-05-21T01:19:06;7.55;;;3.92;;
13269;SDS011;6703;51.994;7.570;2023-05-21T01:21:39;7.45;;;3.88;;
13269;SDS011;6703;51.994;7.570;2023-05-21T01:24:09;8.88;;;4.47;;
13269;SDS011;6703;51.994;7.570;2023-05-21T01:26:37;7.88;;;4.25;;
13269;SDS011;6703;51.994;7.570;2023-05-21T01:29:07;7.70;;;4.10;;
13269;SDS011;6703;51.994;7.570;2023-05-21T01:31:44;8.27;;;4.50;;
13269;SDS011;6703;51.994;7.570;2023-05-21T01:34:21;8.43;;;4.45;;
13269;SDS011;6703;51.994;7.570;2023-05-21T01:36:54;7.32;;;4.47;;
13269;SDS011;6703;51.994;7.570;2023-05-21T01:39:28;6.95;;;4.07;;
13269;SDS011;6703;51.994;7.570;2023-05-21T01:41:58;7.75;;;4.30;;
13269;SDS011;6703;51.994;7.570;2023-05-21T01:44:26;8.10;;;4.40;;
13269;SDS011;6703;51.994;7.570;2023-05-21T01:46:54;10.05;;;4.63;;
13269;SDS011;6703;51.994;7.570;2023-05-21T01:49:23;8.50;;;4.10;;
13269;SDS011;6703;51.994;7.570;2023-05-21T01:51:51;7.47;;;4.40;;
13269;SDS011;6703;51.994;7.570;2023-05-21T01:54:19;7.32;;;4.07;;
13269;SDS011;6703;51.994;7.570;2023-05-21T01:56:48;6.50;;;3.53;;
13269;SDS011;6703;51.994;7.570;2023-05-21T01:59:16;6.93;;;4.05;;
13269;SDS011;6703;51.994;7.570;2023-05-21T02:01:45;9.27;;;4.50;;
13269;SDS011;6703;51.994;7.570;2023-05-21T02:04:13;7.70;;;4.30;;
13269;SDS011;6703;51.994;7.570;2023-05-21T02:06:40;9.23;;;4.35;;
13269;SDS011;6703;51.994;7.570;2023-05-21T02:09:09;8.45;;;4.47;;
13269;SDS011;6703;51.994;7.570;2023-05-21T02:11:37;8.07;;;3.90;;
13269;SDS011;6703;51.994;7.570;2023-05-21T02:14:06;10.98;;;4.72;;
13269;SDS011;6703;51.994;7.570;2023-05-21T02:16:35;7.78;;;4.28;;
13269;SDS011;6703;51.994;7.570;2023-05-21T02:19:03;11.68;;;4.75;;
13269;SDS011;6703;51.994;7.570;2023-05-21T02:21:31;11.63;;;5.60;;
13269;SDS011;6703;51.994;7.570;2023-05-21T02:23:59;10.63;;;5.00;;
13269;SDS011;6703;51.994;7.570;2023-05-21T02:26:27;13.13;;;5.57;;
13269;SDS011;6703;51.994;7.570;2023-05-21T02:28:55;10.40;;;5.30;;
13269;SDS011;6703;51.994;7.570;2023-05-21T02:31:24;14.18;;;5.78;;
13269;SDS011;6703;51.994;7.570;2023-05-21T02:33:52;10.52;;;5.45;;
13269;SDS011;6703;51.994;7.570;2023-05-21T02:36:20;12.77;;;5.07;;
13269;SDS011;6703;51.994;7.570;2023-05-21T02:38:50;9.77;;;4.68;;
13269;SDS011;6703;51.994;7.570;2023-05-21T02:41:18;11.60;;;4.90;;
13269;SDS011;6703;51.994;7.570;2023-05-21T02:43:46;10.65;;;4.90;;
13269;SDS011;6703;51.994;7.570;2023-05-21T02:46:14;9.00;;;5.25;;
13269;SDS011;6703;51.994;7.570;2023-05-21T02:48:43;10.45;;;4.95;;
13269;SDS011;6703;51.994;7.570;2023-05-21T02:51:17;12.77;;;4.80;;
13269;SDS011;6703;51.994;7.570;2023-05-21T02:53:44;10.97;;;5.43;;
13269;SDS011;6703;51.994;7.570;2023-05-21T02:56:12;14.93;;;5.53;;
13269;SDS011;6703;51.994;7.570;2023-05-21T02:58:40;10.07;;;4.97;;
13269;SDS011;6703;51.994;7.570;2023-05-21T03:01:08;12.00;;;5.10;;
13269;SDS011;6703;51.994;7.570;2023-05-21T03:03:35;13.88;;;4.95;;
13269;SDS011;6703;51.994;7.570;2023-05-21T03:06:05;11.65;;;5.20;;
13269;SDS011;6703;51.994;7.570;2023-05-21T03:08:35;12.50;;;5.23;;
13269;SDS011;6703;51.994;7.570;2023-05-21T03:11:03;11.50;;;5.25;;
13269;SDS011;6703;51.994;7.570;2023-05-21T03:13:31;12.52;;;5.40;;
13269;SDS011;6703;51.994;7.570;2023-05-21T03:15:58;12.80;;;5.00;;
13269;SDS011;6703;51.994;7.570;2023-05-21T03:18:26;13.10;;;5.05;;
13269;SDS011;6703;51.994;7.570;2023-05-21T03:20:54;10.23;;;5.25;;
13269;SDS011;6703;51.994;7.570;2023-05-21T03:23:25;10.40;;;5.13;;
13269;SDS011;6703;51.994;7.570;2023-05-21T03:25:53;9.40;;;5.13;;
13269;SDS011;6703;51.994;7.570;2023-05-21T03:28:20;12.23;;;5.10;;
13269;SDS011;6703;51.994;7.570;2023-05-21T03:30:48;9.65;;;5.38;;
13269;SDS011;6703;51.994;7.570;2023-05-21T03:33:16;11.43;;;5.25;;
13269;SDS011;6703;51.994;7.570;2023-05-21T03:35:43;9.90;;;5.40;;
13269;SDS011;6703;51.994;7.570;2023-05-21T03:38:11;10.50;;;5.15;;
13269;SDS011;6703;51.994;7.570;2023-05-21T03:40:40;10.47;;;5.53;;
13269;SDS011;6703;51.994;7.570;2023-05-21T03:43:08;11.17;;;5.03;;
13269;SDS011;6703;51.994;7.570;2023-05-21T03:48:03;11.07;;;4.68;;
13269;SDS011;6703;51.994;7.570;2023-05-21T03:50:31;14.98;;;5.65;;
13269;SDS011;6703;51.994;7.570;2023-05-21T03:52:59;10.07;;;5.10;;
13269;SDS011;6703;51.994;7.570;2023-05-21T03:55:27;10.00;;;5.07;;
13269;SDS011;6703;51.994;7.570;2023-05-21T03:57:56;8.98;;;5.43;;
13269;SDS011;6703;51.994;7.570;2023-05-21T04:00:24;11.73;;;4.90;;
13269;SDS011;6703;51.994;7.570;2023-05-21T04:02:51;14.88;;;5.28;;
13269;SDS011;6703;51.994;7.570;2023-05-21T04:05:19;9.50;;;5.00;;
13269;SDS011;6703;51.994;7.570;2023-05-21T04:07:47;10.77;;;5.68;;
13269;SDS011;6703;51.994;7.570;2023-05-21T04:10:15;16.00;;;5.65;;
13269;SDS011;6703;51.994;7.570;2023-05-21T04:12:42;10.95;;;5.05;;
13269;SDS011;6703;51.994;7.570;2023-05-21T04:15:12;10.80;;;4.90;;
13269;SDS011;6703;51.994;7.570;2023-05-21T04:17:43;11.48;;;5.55;;
13269;SDS011;6703;51.994;7.570;2023-05-21T04:20:12;11.23;;;5.20;;
13269;SDS011;6703;51.994;7.570;2023-05-21T04:22:42;10.80;;;5.22;;
13269;SDS011;6703;51.994;7.570;2023-05-21T04:25:09;11.70;;;5.78;;
13269;SDS011;6703;51.994;7.570;2023-05-21T04:27:37;11.07;;;5.25;;
13269;SDS011;6703;51.994;7.570;2023-05-21T04:30:05;11.57;;;5.20;;
13269;SDS011;6703;51.994;7.570;2023-05-21T04:32:35;11.50;;;5.25;;
13269;SDS011;6703;51.994;7.570;2023-05-21T04:35:04;10.93;;;5.47;;
13269;SDS011;6703;51.994;7.570;2023-05-21T04:37:32;11.85;;;5.28;;
13269;SDS011;6703;51.994;7.570;2023-05-21T04:40:01;10.18;;;5.60;;
13269;SDS011;6703;51.994;7.570;2023-05-21T04:42:29;10.95;;;5.18;;
13269;SDS011;6703;51.994;7.570;2023-05-21T04:44:58;8.80;;;5.18;;
13269;SDS011;6703;51.994;7.570;2023-05-21T04:47:26;10.02;;;5.40;;
13269;SDS011;6703;51.994;7.570;2023-05-21T04:49:57;10.07;;;5.40;;
13269;SDS011;6703;51.994;7.570;2023-05-21T04:52:24;12.95;;;5.07;;
13269;SDS011;6703;51.994;7.570;2023-05-21T04:54:52;10.90;;;5.20;;
13269;SDS011;6703;51.994;7.570;2023-05-21T04:57:20;15.52;;;5.82;;
13269;SDS011;6703;51.994;7.570;2023-05-21T04:59:49;11.68;;;5.38;;
13269;SDS011;6703;51.994;7.570;2023-05-21T05:02:17;11.32;;;5.10;;
13269;SDS011;6703;51.994;7.570;2023-05-21T05:04:45;11.48;;;5.18;;
13269;SDS011;6703;51.994;7.570;2023-05-21T05:07:14;9.27;;;5.03;;
13269;SDS011;6703;51.994;7.570;2023-05-21T05:09:42;9.50;;;4.93;;
13269;SDS011;6703;51.994;7.570;2023-05-21T05:12:10;11.85;;;4.78;;
13269;SDS011;6703;51.994;7.570;2023-05-21T05:14:37;10.48;;;5.38;;
13269;SDS011;6703;51.994;7.570;2023-05-21T05:17:05;8.70;;;4.78;;
13269;SDS011;6703;51.994;7.570;2023-05-21T05:19:35;9.95;;;4.82;;
13269;SDS011;6703;51.994;7.570;2023-05-21T05:22:03;8.90;;;4.78;;
13269;SDS011;6703;51.994;7.570;2023-05-21T05:24:32;9.20;;;4.90;;
13269;SDS011;6703;51.994;7.570;2023-05-21T05:27:00;10.95;;;4.93;;
13269;SDS011;6703;51.994;7.570;2023-05-21T05:29:28;11.05;;;4.72;;
13269;SDS011;6703;51.994;7.570;2023-05-21T05:31:56;14.90;;;5.50;;
13269;SDS011;6703;51.994;7.570;2023-05-21T05:34:23;11.88;;;4.47;;
13269;SDS011;6703;51.994;7.570;2023-05-21T05:36:51;10.65;;;5.13;;
13269;SDS011;6703;51.994;7.570;2023-05-21T05:39:24;9.20;;;4.68;;
13269;SDS011;6703;51.994;7.570;2023-05-21T05:41:53;11.38;;;5.07;;
13269;SDS011;6703;51.994;7.570;2023-05-21T05:44:21;11.18;;;4.78;;
13269;SDS011;6703;51.994;7.570;2023-05-21T05:46:49;10.18;;;5.05;;
13269;SDS011;6703;51.994;7.570;2023-05-21T05:49:16;9.40;;;4.35;;
13269;SDS011;6703;51.994;7.570;2023-05-21T05:51:44;8.57;;;4.57;;
13269;SDS011;6703;51.994;7.570;2023-05-21T05:54:12;9.07;;;4.70;;
13269;SDS011;6703;51.994;7.570;2023-05-21T05:56:39;13.60;;;4.82;;
13269;SDS011;6703;51.994;7.570;2023-05-21T05:59:08;11.90;;;5.32;;
13269;SDS011;6703;51.994;7.570;2023-05-21T06:01:36;11.82;;;4.70;;
13269;SDS011;6703;51.994;7.570;2023-05-21T06:04:04;12.93;;;4.93;;
13269;SDS011;6703;51.994;7.570;2023-05-21T06:06:32;10.57;;;4.80;;
13269;SDS011;6703;51.994;7.570;2023-05-21T06:08:59;11.00;;;4.82;;
13269;SDS011;6703;51.994;7.570;2023-05-21T06:11:27;11.43;;;4.50;;
13269;SDS011;6703;51.994;7.570;2023-05-21T06:13:55;9.63;;;4.60;;
13269;SDS011;6703;51.994;7.570;2023-05-21T06:16:27;9.02;;;4.80;;
13269;SDS011;6703;51.994;7.570;2023-05-21T06:22:19;8.75;;;4.47;;
13269;SDS011;6703;51.994;7.570;2023-05-21T06:24:50;13.10;;;5.03;;
13269;SDS011;6703;51.994;7.570;2023-05-21T06:27:18;9.88;;;4.72;;
13269;SDS011;6703;51.994;7.570;2023-05-21T06:29:46;13.68;;;5.03;;
13269;SDS011;6703;51.994;7.570;2023-05-21T06:32:15;8.60;;;4.55;;
13269;SDS011;6703;51.994;7.570;2023-05-21T06:34:43;8.48;;;4.50;;
13269;SDS011;6703;51.994;7.570;2023-05-21T06:37:10;10.35;;;4.90;;
13269;SDS011;6703;51.994;7.570;2023-05-21T06:39:38;9.23;;;4.87;;
13269;SDS011;6703;51.994;7.570;2023-05-21T06:42:05;10.50;;;4.68;;
13269;SDS011;6703;51.994;7.570;2023-05-21T06:44:33;10.05;;;4.80;;
13269;SDS011;6703;51.994;7.570;2023-05-21T06:47:01;9.43;;;4.83;;
13269;SDS011;6703;51.994;7.570;2023-05-21T06:49:30;11.75;;;4.82;;
13269;SDS011;6703;51.994;7.570;2023-05-21T06:51:58;11.40;;;4.68;;
13269;SDS011;6703;51.994;7.570;2023-05-21T06:54:26;9.82;;;4.30;;
13269;SDS011;6703;51.994;7.570;2023-05-21T06:56:56;9.30;;;4.80;;
13269;SDS011;6703;51.994;7.570;2023-05-21T06:59:24;10.00;;;4.57;;
13269;SDS011;6703;51.994;7.570;2023-05-21T07:01:52;8.98;;;5.05;;
13269;SDS011;6703;51.994;7.570;2023-05-21T07:04:20;10.60;;;4.70;;
13269;SDS011;6703;51.994;7.570;2023-05-21T07:06:49;9.23;;;4.55;;
13269;SDS011;6703;51.994;7.570;2023-05-21T07:09:17;12.75;;;5.00;;
13269;SDS011;6703;51.994;7.570;2023-05-21T07:11:45;7.70;;;4.10;;
13269;SDS011;6703;51.994;7.570;2023-05-21T07:14:13;10.88;;;4.75;;
13269;SDS011;6703;51.994;7.570;2023-05-21T07:16:40;10.77;;;4.77;;
13269;SDS011;6703;51.994;7.570;2023-05-21T07:19:08;9.75;;;4.45;;
13269;SDS011;6703;51.994;7.570;2023-05-21T07:21:36;7.17;;;4.43;;
13269;SDS011;6703;51.994;7.570;2023-05-21T07:24:05;13.55;;;4.85;;
13269;SDS011;6703;51.994;7.570;2023-05-21T07:26:33;9.27;;;4.03;;
13269;SDS011;6703;51.994;7.570;2023-05-21T07:29:01;8.43;;;4.63;;
13269;SDS011;6703;51.994;7.570;2023-05-21T07:31:28;12.02;;;4.68;;
13269;SDS011;6703;51.994;7.570;2023-05-21T07:33:56;8.18;;;4.60;;
13269;SDS011;6703;51.994;7.570;2023-05-21T07:36:24;10.75;;;4.88;;
13269;SDS011;6703;51.994;7.570;2023-05-21T07:38:52;9.93;;;4.22;;
13269;SDS011;6703;51.994;7.570;2023-05-21T07:41:21;8.70;;;4.47;;
13269;SDS011;6703;51.994;7.570;2023-05-21T07:43:49;8.73;;;4.43;;
13269;SDS011;6703;51.994;7.570;2023-05-21T07:46:16;7.43;;;4.35;;
13269;SDS011;6703;51.994;7.570;2023-05-21T07:48:44;10.10;;;4.50;;
13269;SDS011;6703;51.994;7.570;2023-05-21T07:51:13;9.48;;;4.82;;
13269;SDS011;6703;51.994;7.570;2023-05-21T07:53:41;16.88;;;4.60;;
13269;SDS011;6703;51.994;7.570;2023-05-21T07:56:09;7.55;;;4.47;;
13269;SDS011;6703;51.994;7.570;2023-05-21T07:58:38;8.98;;;4.05;;
13269;SDS011;6703;51.994;7.570;2023-05-21T08:01:06;9.68;;;4.60;;
13269;SDS011;6703;51.994;7.570;2023-05-21T08:03:34;11.80;;;5.00;;
13269;SDS011;6703;51.994;7.570;2023-05-21T08:06:02;8.55;;;4.95;;
13269;SDS011;6703;51.994;7.570;2023-05-21T08:08:30;8.55;;;4.47;;
13269;SDS011;6703;51.994;7.570;2023-05-21T08:10:57;11.35;;;5.00;;
13269;SDS011;6703;51.994;7.570;2023-05-21T08:13:25;7.37;;;4.50;;
13269;SDS011;6703;51.994;7.570;2023-05-21T08:15:54;9.95;;;4.85;;
13269;SDS011;6703;51.994;7.570;2023-05-21T08:18:22;10.50;;;4.90;;
13269;SDS011;6703;51.994;7.570;2023-05-21T08:20:50;11.77;;;5.15;;
13269;SDS011;6703;51.994;7.570;2023-05-21T08:23:18;9.35;;;4.78;;
13269;SDS011;6703;51.994;7.570;2023-05-21T08:25:46;13.23;;;5.50;;
13269;SDS011;6703;51.994;7.570;2023-05-21T08:28:14;8.13;;;5.00;;
13269;SDS011;6703;51.994;7.570;2023-05-21T08:30:41;9.73;;;4.88;;
13269;SDS011;6703;51.994;7.570;2023-05-21T08:33:10;12.07;;;5.22;;
13269;SDS011;6703;51.994;7.570;2023-05-21T08:35:39;10.33;;;5.37;;
13269;SDS011;6703;51.994;7.570;2023-05-21T08:38:06;8.70;;;5.03;;
13269;SDS011;6703;51.994;7.570;2023-05-21T08:40:34;11.88;;;5.50;;
13269;SDS011;6703;51.994;7.570;2023-05-21T08:43:02;15.43;;;5.60;;
13269;SDS011;6703;51.994;7.570;2023-05-21T08:45:31;13.93;;;5.70;;
13269;SDS011;6703;51.994;7.570;2023-05-21T08:48:04;9.18;;;4.80;;
13269;SDS011;6703;51.994;7.570;2023-05-21T08:50:34;14.32;;;5.82;;
13269;SDS011;6703;51.994;7.570;2023-05-21T08:53:01;12.05;;;5.43;;
13269;SDS011;6703;51.994;7.570;2023-05-21T08:55:49;16.15;;;6.00;;
13269;SDS011;6703;51.994;7.570;2023-05-21T08:58:19;9.82;;;5.93;;
13269;SDS011;6703;51.994;7.570;2023-05-21T09:00:47;9.02;;;5.65;;
13269;SDS011;6703;51.994;7.570;2023-05-21T09:03:15;11.98;;;6.05;;
13269;SDS011;6703;51.994;7.570;2023-05-21T09:05:45;16.23;;;6.43;;
13269;SDS011;6703;51.994;7.570;2023-05-21T09:08:15;10.90;;;5.43;;
13269;SDS011;6703;51.994;7.570;2023-05-21T09:10:45;12.70;;;6.15;;
13269;SDS011;6703;51.994;7.570;2023-05-21T09:13:56;9.80;;;5.20;;
13269;SDS011;6703;51.994;7.570;2023-05-21T09:16:24;12.57;;;6.03;;
13269;SDS011;6703;51.994;7.570;2023-05-21T09:18:52;12.48;;;6.25;;
13269;SDS011;6703;51.994;7.570;2023-05-21T09:21:25;12.35;;;5.88;;
13269;SDS011;6703;51.994;7.570;2023-05-21T09:23:54;12.02;;;6.63;;
13269;SDS011;6703;51.994;7.570;2023-05-21T09:26:23;13.60;;;6.45;;
13269;SDS011;6703;51.994;7.570;2023-05-21T09:28:55;15.38;;;7.07;;
13269;SDS011;6703;51.994;7.570;2023-05-21T09:31:42;14.98;;;6.43;;
13269;SDS011;6703;51.994;7.570;2023-05-21T09:34:10;13.85;;;6.82;;
13269;SDS011;6703;51.994;7.570;2023-05-21T09:36:40;11.63;;;6.68;;
13269;SDS011;6703;51.994;7.570;2023-05-21T09:39:09;13.90;;;6.05;;
13269;SDS011;6703;51.994;7.570;2023-05-21T09:41:41;14.25;;;7.47;;
13269;SDS011;6703;51.994;7.570;2023-05-21T09:44:09;12.63;;;6.63;;
13269;SDS011;6703;51.994;7.570;2023-05-21T09:46:56;13.40;;;6.95;;
13269;SDS011;6703;51.994;7.570;2023-05-21T09:49:25;11.63;;;6.83;;
13269;SDS011;6703;51.994;7.570;2023-05-21T09:51:55;14.93;;;6.53;;
13269;SDS011;6703;51.994;7.570;2023-05-21T09:54:23;14.90;;;6.90;;
13269;SDS011;6703;51.994;7.570;2023-05-21T09:56:51;12.52;;;6.82;;
13269;SDS011;6703;51.994;7.570;2023-05-21T09:59:19;13.95;;;7.03;;
13269;SDS011;6703;51.994;7.570;2023-05-21T10:01:49;16.00;;;7.80;;
13269;SDS011;6703;51.994;7.570;2023-05-21T10:04:17;13.18;;;7.03;;
13269;SDS011;6703;51.994;7.570;2023-05-21T10:06:46;12.70;;;7.50;;
13269;SDS011;6703;51.994;7.570;2023-05-21T10:09:16;12.88;;;7.18;;
13269;SDS011;6703;51.994;7.570;2023-05-21T10:11:45;13.15;;;7.13;;
13269;SDS011;6703;51.994;7.570;2023-05-21T10:14:14;13.90;;;7.30;;
13269;SDS011;6703;51.994;7.570;2023-05-21T10:16:43;14.32;;;7.32;;
13269;SDS011;6703;51.994;7.570;2023-05-21T10:19:11;15.82;;;7.90;;
13269;SDS011;6703;51.994;7.570;2023-05-21T10:21:39;12.03;;;7.07;;
13269;SDS011;6703;51.994;7.570;2023-05-21T10:24:08;12.90;;;7.17;;
13269;SDS011;6703;51.994;7.570;2023-05-21T10:26:38;13.25;;;7.68;;
13269;SDS011;6703;51.994;7.570;2023-05-21T10:29:06;16.15;;;8.57;;
13269;SDS011;6703;51.994;7.570;2023-05-21T10:31:34;17.03;;;8.10;;
13269;SDS011;6703;51.994;7.570;2023-05-21T10:34:02;13.35;;;7.53;;
13269;SDS011;6703;51.994;7.570;2023-05-21T10:36:31;19.58;;;8.38;;
13269;SDS011;6703;51.994;7.570;2023-05-21T10:38:59;17.38;;;8.20;;
13269;SDS011;6703;51.994;7.570;2023-05-21T10:41:30;14.85;;;7.30;;
13269;SDS011;6703;51.994;7.570;2023-05-21T10:44:06;14.45;;;7.07;;
13269;SDS011;6703;51.994;7.570;2023-05-21T10:46:46;13.82;;;7.25;;
13269;SDS011;6703;51.994;7.570;2023-05-21T10:49:34;18.47;;;7.87;;
13269;SDS011;6703;51.994;7.570;2023-05-21T10:52:12;13.70;;;7.50;;
13269;SDS011;6703;51.994;7.570;2023-05-21T10:54:57;13.18;;;7.47;;
13269;SDS011;6703;51.994;7.570;2023-05-21T10:57:36;12.90;;;7.10;;
13269;SDS011;6703;51.994;7.570;2023-05-21T11:00:13;13.38;;;7.65;;
13269;SDS011;6703;51.994;7.570;2023-05-21T11:02:42;14.23;;;7.82;;
13269;SDS011;6703;51.994;7.570;2023-05-21T11:05:11;11.63;;;7.03;;
13269;SDS011;6703;51.994;7.570;2023-05-21T11:07:51;14.03;;;7.40;;
13269;SDS011;6703;51.994;7.570;2023-05-21T11:10:31;15.50;;;7.30;;
13269;SDS011;6703;51.994;7.570;2023-05-21T11:13:18;13.68;;;7.20;;
13269;SDS011;6703;51.994;7.570;2023-05-21T11:16:07;16.42;;;7.13;;
13269;SDS011;6703;51.994;7.570;2023-05-21T11:19:00;16.45;;;7.65;;
13269;SDS011;6703;51.994;7.570;2023-05-21T11:21:28;15.13;;;7.55;;
13269;SDS011;6703;51.994;7.570;2023-05-21T11:24:01;15.13;;;7.63;;
13269;SDS011;6703;51.994;7.570;2023-05-21T11:29:35;11.38;;;7.05;;
13269;SDS011;6703;51.994;7.570;2023-05-21T11:32:07;12.95;;;7.05;;
13269;SDS011;6703;51.994;7.570;2023-05-21T11:34:36;16.58;;;8.02;;
13269;SDS011;6703;51.994;7.570;2023-05-21T11:37:21;15.05;;;7.30;;
13269;SDS011;6703;51.994;7.570;2023-05-21T11:39:50;14.35;;;8.05;;
13269;SDS011;6703;51.994;7.570;2023-05-21T11:42:26;15.73;;;8.90;;
13269;SDS011;6703;51.994;7.570;2023-05-21T11:44:55;14.15;;;7.40;;
13269;SDS011;6703;51.994;7.570;2023-05-21T11:47:25;13.57;;;7.28;;
13269;SDS011;6703;51.994;7.570;2023-05-21T11:49:54;12.97;;;7.43;;
13269;SDS011;6703;51.994;7.570;2023-05-21T11:52:22;11.87;;;6.97;;
13269;SDS011;6703;51.994;7.570;2023-05-21T11:54:50;14.63;;;7.15;;
13269;SDS011;6703;51.994;7.570;2023-05-21T11:57:23;16.08;;;7.45;;
13269;SDS011;6703;51.994;7.570;2023-05-21T11:59:55;12.98;;;6.88;;
13269;SDS011;6703;51.994;7.570;2023-05-21T12:02:29;14.75;;;7.45;;
13269;SDS011;6703;51.994;7.570;2023-05-21T12:04:57;13.27;;;7.20;;
13269;SDS011;6703;51.994;7.570;2023-05-21T12:07:26;13.27;;;7.03;;
13269;SDS011;6703;51.994;7.570;2023-05-21T12:09:55;12.38;;;7.35;;
13269;SDS011;6703;51.994;7.570;2023-05-21T12:12:24;14.03;;;7.00;;
13269;SDS011;6703;51.994;7.570;2023-05-21T12:15:07;13.02;;;7.53;;
13269;SDS011;6703;51.994;7.570;2023-05-21T12:17:39;10.87;;;7.03;;
13269;SDS011;6703;51.994;7.570;2023-05-21T12:20:07;13.63;;;7.40;;
13269;SDS011;6703;51.994;7.570;2023-05-21T12:22:39;11.55;;;6.65;;
13269;SDS011;6703;51.994;7.570;2023-05-21T12:25:08;11.00;;;7.03;;
13269;SDS011;6703;51.994;7.570;2023-05-21T12:27:37;13.48;;;7.55;;
13269;SDS011;6703;51.994;7.570;2023-05-21T12:30:05;12.93;;;7.23;;
13269;SDS011;6703;51.994;7.570;2023-05-21T12:32:34;11.82;;;6.88;;
13269;SDS011;6703;51.994;7.570;2023-05-21T12:35:05;14.98;;;6.80;;
13269;SDS011;6703;51.994;7.570;2023-05-21T12:37:33;13.73;;;6.72;;
13269;SDS011;6703;51.994;7.570;2023-05-21T12:40:01;13.27;;;7.25;;
13269;SDS011;6703;51.994;7.570;2023-05-21T12:42:32;12.77;;;7.35;;
13269;SDS011;6703;51.994;7.570;2023-05-21T12:45:04;11.68;;;6.50;;
13269;SDS011;6703;51.994;7.570;2023-05-21T12:47:41;10.55;;;7.00;;
13269;SDS011;6703;51.994;7.570;2023-05-21T12:50:15;11.93;;;6.95;;
13269;SDS011;6703;51.994;7.570;2023-05-21T12:52:46;16.63;;;7.35;;
13269;SDS011;6703;51.994;7.570;2023-05-21T12:55:14;13.73;;;7.67;;
13269;SDS011;6703;51.994;7.570;2023-05-21T12:57:43;11.40;;;6.70;;
13269;SDS011;6703;51.994;7.570;2023-05-21T13:00:11;10.15;;;7.00;;
13269;SDS011;6703;51.994;7.570;2023-05-21T13:02:40;16.27;;;7.18;;
13269;SDS011;6703;51.994;7.570;2023-05-21T13:05:09;12.20;;;7.40;;
13269;SDS011;6703;51.994;7.570;2023-05-21T13:07:43;15.10;;;6.90;;
13269;SDS011;6703;51.994;7.570;2023-05-21T13:10:13;13.18;;;7.18;;
13269;SDS011;6703;51.994;7.570;2023-05-21T13:12:41;11.95;;;6.78;;
13269;SDS011;6703;51.994;7.570;2023-05-21T13:15:10;11.05;;;6.82;;
13269;SDS011;6703;51.994;7.570;2023-05-21T13:17:38;13.45;;;6.75;;
13269;SDS011;6703;51.994;7.570;2023-05-21T13:20:06;11.60;;;6.72;;
13269;SDS011;6703;51.994;7.570;2023-05-21T13:22:37;12.70;;;6.65;;
13269;SDS011;6703;51.994;7.570;2023-05-21T13:25:09;12.98;;;7.28;;
13269;SDS011;6703;51.994;7.570;2023-05-21T13:27:37;14.07;;;7.10;;
13269;SDS011;6703;51.994;7.570;2023-05-21T13:30:05;13.85;;;7.25;;
13269;SDS011;6703;51.994;7.570;2023-05-21T13:32:34;11.68;;;7.32;;
13269;SDS011;6703;51.994;7.570;2023-05-21T13:35:02;13.18;;;6.70;;
13269;SDS011;6703;51.994;7.570;2023-05-21T13:37:32;12.98;;;7.40;;
13269;SDS011;6703;51.994;7.570;2023-05-21T13:40:01;10.48;;;6.32;;
13269;SDS011;6703;51.994;7.570;2023-05-21T13:42:31;11.57;;;6.35;;
13269;SDS011;6703;51.994;7.570;2023-05-21T13:44:58;11.65;;;6.68;;
13269;SDS011;6703;51.994;7.570;2023-05-21T13:47:26;12.32;;;7.05;;
13269;SDS011;6703;51.994;7.570;2023-05-21T13:49:54;12.95;;;6.88;;
13269;SDS011;6703;51.994;7.570;2023-05-21T13:52:21;12.15;;;7.20;;
13269;SDS011;6703;51.994;7.570;2023-05-21T13:54:49;14.30;;;6.88;;
13269;SDS011;6703;51.994;7.570;2023-05-21T13:57:17;18.73;;;7.25;;
13269;SDS011;6703;51.994;7.570;2023-05-21T13:59:46;12.13;;;6.87;;
13269;SDS011;6703;51.994;7.570;2023-05-21T14:02:15;12.98;;;6.60;;
13269;SDS011;6703;51.994;7.570;2023-05-21T14:04:43;11.95;;;6.75;;
13269;SDS011;6703;51.994;7.570;2023-05-21T14:07:11;10.30;;;6.72;;
13269;SDS011;6703;51.994;7.570;2023-05-21T14:09:39;10.30;;;6.55;;
13269;SDS011;6703;51.994;7.570;2023-05-21T14:12:07;11.15;;;6.28;;
13269;SDS011;6703;51.994;7.570;2023-05-21T14:14:35;13.60;;;6.38;;
13269;SDS011;6703;51.994;7.570;2023-05-21T14:17:05;10.73;;;6.63;;
13269;SDS011;6703;51.994;7.570;2023-05-21T14:19:32;11.15;;;6.05;;
13269;SDS011;6703;51.994;7.570;2023-05-21T14:22:00;10.80;;;6.70;;
13269;SDS011;6703;51.994;7.570;2023-05-21T14:24:28;13.05;;;6.80;;
13269;SDS011;6703;51.994;7.570;2023-05-21T14:26:55;12.90;;;6.60;;
13269;SDS011;6703;51.994;7.570;2023-05-21T14:29:23;11.10;;;6.82;;
13269;SDS011;6703;51.994;7.570;2023-05-21T14:31:51;11.40;;;6.90;;
13269;SDS011;6703;51.994;7.570;2023-05-21T14:34:20;13.75;;;6.97;;
13269;SDS011;6703;51.994;7.570;2023-05-21T14:36:48;12.13;;;6.90;;
13269;SDS011;6703;51.994;7.570;2023-05-21T14:39:15;12.18;;;6.90;;
13269;SDS011;6703;51.994;7.570;2023-05-21T14:41:43;11.63;;;7.40;;
13269;SDS011;6703;51.994;7.570;2023-05-21T14:44:11;11.63;;;6.65;;
13269;SDS011;6703;51.994;7.570;2023-05-21T14:46:38;13.05;;;7.38;;
13269;SDS011;6703;51.994;7.570;2023-05-21T14:49:06;13.88;;;7.50;;
13269;SDS011;6703;51.994;7.570;2023-05-21T14:51:35;14.60;;;6.97;;
13269;SDS011;6703;51.994;7.570;2023-05-21T14:54:03;11.37;;;6.43;;
13269;SDS011;6703;51.994;7.570;2023-05-21T14:56:30;11.30;;;6.65;;
13269;SDS011;6703;51.994;7.570;2023-05-21T14:58:58;11.80;;;6.35;;
13269;SDS011;6703;51.994;7.570;2023-05-21T15:01:26;12.38;;;6.53;;
13269;SDS011;6703;51.994;7.570;2023-05-21T15:03:53;13.85;;;7.32;;
13269;SDS011;6703;51.994;7.570;2023-05-21T15:06:23;10.95;;;6.57;;
13269;SDS011;6703;51.994;7.570;2023-05-21T15:08:53;14.40;;;6.82;;
13269;SDS011;6703;51.994;7.570;2023-05-21T15:11:20;10.40;;;6.57;;
13269;SDS011;6703;51.994;7.570;2023-05-21T15:13:48;11.30;;;6.30;;
13269;SDS011;6703;51.994;7.570;2023-05-21T15:16:16;12.70;;;6.22;;